Rio Rico, Texas
Current Conditions -  °F | °C
As of 8:35 AM on Tuesday 21 Oct 2014 (Local Time) from KT65 Reporting Station
Haze Haze  
Wind Chill: 71°   Ceiling: Unl
Heat Index: 71°   Visibility: 5mi
Dew Point: 68°   Wind: 5mph
Humidity: 90%   Direction: 360°N
Pressure: 29.96"   Gusts: NA
Location:  26.1456°N, 97.91°W
Report Text: KT65 211335Z AUTO 36004KT 5SM BR SCT037 SCT044 22/20 A2996 RMK AO2 T02170200
Loading
Personal Weather Stations






























Interactive Weather Map
Tropical Storm Tracking
New forecast layout! Learn more

10-Day Weather Forecast

Advertisements
Track Severe Weather on mobile